createdAt,value
2017-10-22T00:00:37.837Z,10.72
2017-10-22T00:01:37.818Z,10.68
2017-10-22T00:02:37.851Z,10.68
2017-10-22T00:03:37.833Z,10.74
2017-10-22T00:04:37.861Z,10.64
2017-10-22T00:05:37.850Z,10.54
2017-10-22T00:06:37.873Z,10.54
2017-10-22T00:07:37.870Z,10.56
2017-10-22T00:08:37.987Z,10.68
2017-10-22T00:09:37.883Z,10.64
2017-10-22T00:10:38.007Z,10.71
2017-10-22T00:11:37.901Z,10.53
2017-10-22T00:12:37.914Z,10.57
2017-10-22T00:13:38.022Z,10.42
2017-10-22T00:14:37.928Z,10.48
2017-10-22T00:15:38.036Z,10.41
2017-10-22T00:16:37.943Z,10.40
2017-10-22T00:17:38.044Z,10.41
2017-10-22T00:18:37.961Z,10.38
2017-10-22T00:19:38.062Z,10.44
2017-10-22T00:20:37.976Z,10.38
2017-10-22T00:21:38.073Z,10.38
2017-10-22T00:22:37.997Z,10.41
2017-10-22T00:23:38.097Z,10.41
2017-10-22T00:24:38.016Z,10.35
2017-10-22T00:25:38.116Z,10.37
2017-10-22T00:26:38.027Z,10.35
2017-10-22T00:27:38.036Z,10.37
2017-10-22T00:28:38.120Z,10.34
2017-10-22T00:29:38.052Z,10.35
2017-10-22T00:30:38.127Z,10.26
2017-10-22T00:31:38.067Z,10.25
2017-10-22T00:32:38.142Z,10.20
2017-10-22T00:33:38.085Z,10.17
2017-10-22T00:34:38.154Z,10.20
2017-10-22T00:35:38.098Z,10.26
2017-10-22T00:36:38.168Z,10.23
2017-10-22T00:37:38.121Z,10.19
2017-10-22T00:38:38.194Z,10.15
2017-10-22T00:39:38.135Z,10.23
2017-10-22T00:40:38.196Z,10.17
2017-10-22T00:41:38.160Z,10.17
2017-10-22T00:42:38.167Z,10.22
2017-10-22T00:43:38.213Z,10.09
2017-10-22T00:44:38.177Z,10.10
2017-10-22T00:45:38.227Z,10.05
2017-10-22T00:46:38.192Z,10.12
2017-10-22T00:47:38.241Z,10.17
2017-10-22T00:48:38.211Z,10.19
2017-10-22T00:49:38.253Z,10.30
2017-10-22T00:50:38.225Z,10.15
2017-10-22T00:51:38.265Z,10.16
2017-10-22T00:52:38.246Z,10.26
2017-10-22T00:53:38.276Z,10.26
2017-10-22T00:54:38.259Z,10.15
2017-10-22T00:55:38.292Z,10.20
2017-10-22T00:56:38.277Z,10.19
2017-10-22T00:57:38.302Z,10.25
2017-10-22T00:58:38.291Z,10.04
2017-10-22T00:59:38.316Z,10.12
2017-10-22T01:00:38.311Z,10.09
2017-10-22T01:01:38.431Z,10.10
2017-10-22T01:02:38.328Z,10.09
2017-10-22T01:03:38.446Z,10.05
2017-10-22T01:04:38.346Z,10.07
2017-10-22T01:05:38.457Z,10.04
2017-10-22T01:06:38.359Z,10.04
2017-10-22T01:07:38.468Z,10.09
2017-10-22T01:08:38.379Z,10.04
2017-10-22T01:09:38.485Z,10.15
2017-10-22T01:10:38.393Z,10.07
2017-10-22T01:11:38.400Z,10.19
2017-10-22T01:12:38.414Z,10.19
2017-10-22T01:13:38.511Z,10.15
2017-10-22T01:14:38.427Z,10.17
2017-10-22T01:15:38.524Z,10.15
2017-10-22T01:16:38.448Z,10.10
2017-10-22T01:17:38.539Z,10.07
2017-10-22T01:18:38.459Z,10.05
2017-10-22T01:19:38.551Z,10.09
2017-10-22T01:20:38.475Z,9.97
2017-10-22T01:21:38.562Z,9.99
2017-10-22T01:22:38.493Z,10.02
2017-10-22T01:23:38.576Z,10.07
2017-10-22T01:24:38.509Z,9.98
2017-10-22T01:25:38.587Z,9.99
2017-10-22T01:26:38.526Z,9.97
2017-10-22T01:27:38.601Z,10.01
2017-10-22T01:28:38.543Z,9.95
2017-10-22T01:29:38.613Z,9.97
2017-10-22T01:30:38.555Z,9.95
2017-10-22T01:31:38.623Z,9.97
2017-10-22T01:32:38.579Z,9.84
2017-10-22T01:33:38.639Z,9.87
2017-10-22T01:34:38.592Z,9.95
2017-10-22T01:35:38.650Z,9.95
2017-10-22T01:36:38.607Z,9.86
2017-10-22T01:37:38.663Z,9.89
2017-10-22T01:38:38.634Z,9.95
2017-10-22T01:39:38.679Z,9.86
2017-10-22T01:40:38.640Z,9.83
2017-10-22T01:41:38.690Z,9.84
2017-10-22T01:42:38.653Z,9.83
2017-10-22T01:43:38.707Z,9.80
2017-10-22T01:44:38.672Z,9.82
2017-10-22T01:45:38.722Z,9.74
2017-10-22T01:46:38.691Z,9.79
2017-10-22T01:47:38.731Z,9.76
2017-10-22T01:48:38.709Z,9.72
2017-10-22T01:49:38.745Z,9.73
2017-10-22T01:50:38.720Z,9.73
2017-10-22T01:51:38.757Z,9.73
2017-10-22T01:52:38.740Z,9.69
2017-10-22T01:53:38.772Z,9.64
2017-10-22T01:54:38.759Z,9.65
2017-10-22T01:55:38.764Z,9.64
2017-10-22T01:56:38.773Z,9.64
2017-10-22T01:57:38.786Z,9.64
2017-10-22T01:58:38.803Z,9.64
2017-10-22T01:59:38.803Z,9.66
2017-10-22T02:00:38.918Z,9.64
2017-10-22T02:01:38.816Z,9.65
2017-10-22T02:02:38.930Z,9.61
2017-10-22T02:03:38.830Z,9.62
2017-10-22T02:04:38.943Z,9.65
2017-10-22T02:05:38.846Z,9.62
2017-10-22T02:06:38.956Z,9.55
2017-10-22T02:07:38.861Z,9.50
2017-10-22T02:08:39.896Z,9.51
2017-10-22T02:09:38.878Z,9.61
2017-10-22T02:10:38.997Z,9.55
2017-10-22T02:11:38.898Z,9.44
2017-10-22T02:12:38.997Z,9.58
2017-10-22T02:13:38.911Z,9.51
2017-10-22T02:14:39.007Z,9.61
2017-10-22T02:15:38.925Z,9.59
2017-10-22T02:16:39.018Z,9.50
2017-10-22T02:17:38.942Z,9.58
2017-10-22T02:18:39.036Z,9.50
2017-10-22T02:19:38.961Z,9.55
2017-10-22T02:20:39.043Z,9.50
2017-10-22T02:21:38.977Z,9.50
2017-10-22T02:22:39.058Z,9.50
2017-10-22T02:23:38.993Z,9.46
2017-10-22T02:24:39.068Z,9.56
2017-10-22T02:25:39.009Z,9.50
2017-10-22T02:26:39.080Z,9.44
2017-10-22T02:27:39.026Z,9.40
2017-10-22T02:28:39.096Z,9.41
2017-10-22T02:29:39.040Z,9.46
2017-10-22T02:30:39.109Z,9.44
2017-10-22T02:31:39.059Z,9.40
2017-10-22T02:32:39.121Z,9.46
2017-10-22T02:33:39.078Z,9.50
2017-10-22T02:34:39.134Z,9.54
2017-10-22T02:35:39.091Z,9.55
2017-10-22T02:36:39.148Z,9.55
2017-10-22T02:37:39.114Z,9.68
2017-10-22T02:38:39.163Z,9.76
2017-10-22T02:39:39.130Z,9.79
2017-10-22T02:40:39.176Z,9.79
2017-10-22T02:41:39.140Z,9.94
2017-10-22T02:42:39.189Z,9.84
2017-10-22T02:43:39.164Z,9.98
2017-10-22T02:44:39.204Z,10.05
2017-10-22T02:45:39.182Z,10.07
2017-10-22T02:46:39.231Z,10.12
2017-10-22T02:47:39.189Z,10.19
2017-10-22T02:48:39.226Z,10.15
2017-10-22T02:49:39.204Z,10.23
2017-10-22T02:50:39.239Z,10.22
2017-10-22T02:51:39.221Z,10.30
2017-10-22T02:52:39.255Z,10.31
2017-10-22T02:53:39.237Z,10.33
2017-10-22T02:54:39.245Z,10.38
2017-10-22T02:55:39.254Z,10.35
2017-10-22T02:56:39.259Z,10.46
2017-10-22T02:57:39.282Z,10.41
2017-10-22T02:58:39.276Z,10.44
2017-10-22T02:59:39.397Z,10.38
2017-10-22T03:00:39.292Z,10.33
2017-10-22T03:01:39.410Z,10.38
2017-10-22T03:02:39.313Z,10.44
2017-10-22T03:03:39.424Z,10.41
2017-10-22T03:04:39.331Z,10.46
2017-10-22T03:05:39.435Z,10.51
2017-10-22T03:06:39.340Z,10.56
2017-10-22T03:07:39.451Z,10.59
2017-10-22T03:08:39.355Z,10.61
2017-10-22T03:09:39.467Z,10.68
2017-10-22T03:10:39.371Z,10.72
2017-10-22T03:11:39.476Z,10.69
2017-10-22T03:12:39.390Z,10.71
2017-10-22T03:13:39.489Z,10.81
2017-10-22T03:14:39.404Z,10.86
2017-10-22T03:15:40.527Z,10.82
2017-10-22T03:16:39.427Z,10.87
2017-10-22T03:17:39.531Z,10.89
2017-10-22T03:18:39.443Z,10.94
2017-10-22T03:19:39.532Z,11.00
2017-10-22T03:20:39.455Z,10.94
2017-10-22T03:21:39.542Z,10.99
2017-10-22T03:22:39.468Z,11.04
2017-10-22T03:23:39.556Z,11.05
2017-10-22T03:24:39.487Z,11.00
2017-10-22T03:25:39.569Z,11.05
2017-10-22T03:26:39.506Z,11.07
2017-10-22T03:27:39.578Z,11.07
2017-10-22T03:28:39.520Z,11.00
2017-10-22T03:29:39.591Z,11.07
2017-10-22T03:30:39.541Z,11.08
2017-10-22T03:31:39.604Z,11.15
2017-10-22T03:32:39.551Z,11.11
2017-10-22T03:33:39.617Z,11.11
2017-10-22T03:34:39.567Z,11.04
2017-10-22T03:35:39.631Z,11.02
2017-10-22T03:36:39.581Z,11.19
2017-10-22T03:37:39.641Z,11.18
2017-10-22T03:38:39.598Z,11.23
2017-10-22T03:39:39.654Z,11.17
2017-10-22T03:40:39.610Z,11.19
2017-10-22T03:41:39.669Z,11.15
2017-10-22T03:42:39.633Z,11.07
2017-10-22T03:43:39.680Z,11.07
2017-10-22T03:44:39.647Z,11.04
2017-10-22T03:45:39.703Z,11.18
2017-10-22T03:46:39.661Z,11.17
2017-10-22T03:47:39.706Z,11.18
2017-10-22T03:48:39.678Z,11.22
2017-10-22T03:49:39.716Z,11.25
2017-10-22T03:50:39.694Z,11.27
2017-10-22T03:51:39.732Z,11.44
2017-10-22T03:52:39.708Z,11.43
2017-10-22T03:53:39.716Z,11.43
2017-10-22T03:54:39.750Z,11.37
2017-10-22T03:55:39.734Z,11.40
2017-10-22T03:56:39.762Z,11.41
2017-10-22T03:57:39.746Z,11.37
2017-10-22T03:58:39.777Z,11.44
2017-10-22T03:59:39.763Z,11.37
2017-10-22T04:00:39.790Z,11.36
2017-10-22T04:01:39.778Z,11.47
2017-10-22T04:02:39.804Z,11.44
2017-10-22T04:03:39.794Z,11.43
2017-10-22T04:04:39.941Z,11.37
2017-10-22T04:05:39.810Z,11.29
2017-10-22T04:06:39.933Z,11.37
2017-10-22T04:07:39.828Z,11.35
2017-10-22T04:08:39.946Z,11.43
2017-10-22T04:09:39.844Z,11.29
2017-10-22T04:10:39.962Z,11.27
2017-10-22T04:11:39.863Z,11.29
2017-10-22T04:12:39.972Z,11.25
2017-10-22T04:13:39.876Z,11.19
2017-10-22T04:14:39.986Z,11.25
2017-10-22T04:15:39.891Z,11.19
2017-10-22T04:16:39.999Z,11.23
2017-10-22T04:17:39.909Z,11.27
2017-10-22T04:18:40.013Z,11.25
2017-10-22T04:19:39.928Z,11.23
2017-10-22T04:20:40.020Z,11.19
2017-10-22T04:21:39.943Z,11.22
2017-10-22T04:22:40.033Z,11.22
2017-10-22T04:23:39.955Z,11.26
2017-10-22T04:24:40.048Z,11.22
2017-10-22T04:25:39.971Z,11.18
2017-10-22T04:26:40.061Z,11.18
2017-10-22T04:27:39.989Z,11.18
2017-10-22T04:28:40.073Z,11.18
2017-10-22T04:29:40.004Z,11.07
2017-10-22T04:30:40.087Z,11.22
2017-10-22T04:31:40.019Z,11.18
2017-10-22T04:32:40.105Z,11.18
2017-10-22T04:33:40.038Z,11.25
2017-10-22T04:34:40.112Z,11.26
2017-10-22T04:35:40.048Z,11.25
2017-10-22T04:36:40.124Z,11.23
2017-10-22T04:37:40.066Z,11.19
2017-10-22T04:38:40.136Z,11.26
2017-10-22T04:39:40.079Z,11.23
2017-10-22T04:40:40.149Z,11.18
2017-10-22T04:41:40.096Z,11.18
2017-10-22T04:42:40.165Z,11.22
2017-10-22T04:43:40.119Z,11.19
2017-10-22T04:44:40.182Z,11.18
2017-10-22T04:45:40.128Z,11.22
2017-10-22T04:46:40.187Z,11.19
2017-10-22T04:47:40.147Z,11.19
2017-10-22T04:48:40.201Z,11.11
2017-10-22T04:49:40.167Z,11.17
2017-10-22T04:50:40.215Z,11.11
2017-10-22T04:51:40.360Z,11.14
2017-10-22T04:52:40.186Z,11.14
2017-10-22T04:53:40.237Z,11.14
2017-10-22T04:54:40.203Z,11.05
2017-10-22T04:55:40.246Z,11.08
2017-10-22T04:56:40.224Z,11.07
2017-10-22T04:57:40.259Z,11.07
2017-10-22T04:58:40.234Z,10.99
2017-10-22T04:59:40.272Z,10.97
2017-10-22T05:00:40.250Z,10.99
2017-10-22T05:01:40.287Z,10.90
2017-10-22T05:02:40.263Z,10.94
2017-10-22T05:03:40.300Z,10.81
2017-10-22T05:04:40.282Z,10.86
2017-10-22T05:05:40.311Z,10.92
2017-10-22T05:06:40.295Z,10.86
2017-10-22T05:07:40.332Z,10.86
2017-10-22T05:08:40.317Z,10.81
2017-10-22T05:09:40.338Z,10.78
2017-10-22T05:10:40.329Z,10.69
2017-10-22T05:11:40.336Z,10.67
2017-10-22T05:12:40.428Z,10.76
2017-10-22T05:13:40.351Z,10.68
2017-10-22T05:14:40.440Z,10.63
2017-10-22T05:15:40.366Z,10.69
2017-10-22T05:16:40.558Z,10.60
2017-10-22T05:17:40.379Z,10.57
2017-10-22T05:18:40.570Z,10.64
2017-10-22T05:19:40.397Z,10.48
2017-10-22T05:20:40.584Z,10.57
2017-10-22T05:21:40.411Z,10.49
2017-10-22T05:22:40.424Z,10.48
2017-10-22T05:23:40.603Z,10.51
2017-10-22T05:24:40.438Z,10.44
2017-10-22T05:25:40.616Z,10.37
2017-10-22T05:26:40.458Z,10.35
2017-10-22T05:27:40.629Z,10.31
2017-10-22T05:28:40.465Z,10.23
2017-10-22T05:29:40.643Z,10.30
2017-10-22T05:30:40.485Z,10.26
2017-10-22T05:31:40.656Z,10.23
2017-10-22T05:32:40.505Z,10.20
2017-10-22T05:33:40.506Z,10.22
2017-10-22T05:34:40.517Z,10.16
2017-10-22T05:35:40.685Z,10.16
2017-10-22T05:36:40.530Z,10.16
2017-10-22T05:37:40.699Z,10.19
2017-10-22T05:38:40.546Z,10.19
2017-10-22T05:39:40.713Z,10.13
2017-10-22T05:40:40.564Z,10.22
2017-10-22T05:41:40.566Z,10.13
2017-10-22T05:42:40.577Z,10.10
2017-10-22T05:43:40.637Z,10.05
2017-10-22T05:44:40.597Z,9.99
2017-10-22T05:45:40.605Z,10.07
2017-10-22T05:46:40.758Z,9.95
2017-10-22T05:47:40.640Z,9.99
2017-10-22T05:48:40.772Z,10.05
2017-10-22T05:49:40.639Z,9.94
2017-10-22T05:50:40.787Z,9.95
2017-10-22T05:51:40.652Z,9.97
2017-10-22T05:52:40.797Z,9.91
2017-10-22T05:53:40.664Z,9.95
2017-10-22T05:54:40.810Z,9.99
2017-10-22T05:55:40.677Z,9.95
2017-10-22T05:56:40.825Z,9.95
2017-10-22T05:57:40.693Z,9.98
2017-10-22T05:58:40.838Z,9.92
2017-10-22T05:59:40.710Z,9.98
2017-10-22T06:00:40.724Z,9.92
2017-10-22T06:01:40.859Z,9.89
2017-10-22T06:02:40.738Z,9.86
2017-10-22T06:03:40.886Z,9.84
2017-10-22T06:04:40.749Z,9.84
2017-10-22T06:05:40.889Z,9.91
2017-10-22T06:06:40.765Z,9.97
2017-10-22T06:07:40.902Z,9.94
2017-10-22T06:08:40.782Z,9.82
2017-10-22T06:09:40.921Z,9.84
2017-10-22T06:10:40.792Z,9.84
2017-10-22T06:11:40.926Z,9.86
2017-10-22T06:12:40.812Z,9.87
2017-10-22T06:13:40.940Z,9.87
2017-10-22T06:14:40.833Z,9.87
2017-10-22T06:15:40.954Z,9.80
2017-10-22T06:16:40.848Z,9.83
2017-10-22T06:17:40.969Z,9.80
2017-10-22T06:18:40.859Z,9.83
2017-10-22T06:19:40.866Z,9.82
2017-10-22T06:20:40.873Z,9.82
2017-10-22T06:21:40.998Z,9.82
2017-10-22T06:22:40.891Z,9.79
2017-10-22T06:23:41.017Z,9.76
2017-10-22T06:24:40.902Z,9.84
2017-10-22T06:25:41.025Z,9.77
2017-10-22T06:26:40.922Z,9.77
2017-10-22T06:27:41.038Z,9.79
2017-10-22T06:28:40.936Z,9.76
2017-10-22T06:29:41.059Z,9.74
2017-10-22T06:30:40.952Z,9.82
2017-10-22T06:31:41.062Z,9.80
2017-10-22T06:32:40.965Z,9.84
2017-10-22T06:33:41.179Z,9.73
2017-10-22T06:34:40.981Z,9.77
2017-10-22T06:35:41.196Z,9.80
2017-10-22T06:36:41.028Z,9.82
2017-10-22T06:37:41.006Z,9.84
2017-10-22T06:38:42.136Z,9.82
2017-10-22T06:39:41.042Z,9.84
2017-10-22T06:40:41.236Z,9.84
2017-10-22T06:41:41.077Z,9.84
2017-10-22T06:42:41.242Z,9.83
2017-10-22T06:43:41.051Z,9.86
2017-10-22T06:44:41.058Z,9.87
2017-10-22T06:45:41.063Z,9.86
2017-10-22T06:46:41.074Z,9.89
2017-10-22T06:47:41.081Z,9.89
2017-10-22T06:48:41.087Z,9.91
2017-10-22T06:49:41.099Z,9.87
2017-10-22T06:50:41.106Z,9.84
2017-10-22T06:51:41.113Z,9.87
2017-10-22T06:52:41.309Z,9.84
2017-10-22T06:53:41.132Z,9.80
2017-10-22T06:54:41.320Z,9.82
2017-10-22T06:55:41.150Z,9.87
2017-10-22T06:56:41.335Z,9.94
2017-10-22T06:57:41.162Z,9.94
2017-10-22T06:58:41.350Z,9.91
2017-10-22T06:59:41.177Z,9.99
2017-10-22T07:00:41.183Z,9.95
2017-10-22T07:01:41.193Z,9.92
2017-10-22T07:02:41.204Z,9.97
2017-10-22T07:03:41.204Z,9.99
2017-10-22T07:04:41.219Z,10.01
2017-10-22T07:05:41.221Z,9.95
2017-10-22T07:06:41.232Z,9.94
2017-10-22T07:07:41.239Z,9.97
2017-10-22T07:08:41.250Z,9.98
2017-10-22T07:09:41.252Z,10.04
2017-10-22T07:10:41.259Z,9.99
2017-10-22T07:11:41.268Z,9.99
2017-10-22T07:12:41.276Z,9.97
2017-10-22T07:13:41.283Z,10.05
2017-10-22T07:14:41.288Z,10.04
2017-10-22T07:15:41.363Z,10.01
2017-10-22T07:16:41.306Z,9.99
2017-10-22T07:17:41.313Z,9.99
2017-10-22T07:18:41.383Z,9.98
2017-10-22T07:19:41.324Z,10.01
2017-10-22T07:20:41.396Z,10.10
2017-10-22T07:21:41.340Z,10.07
2017-10-22T07:22:41.410Z,10.10
2017-10-22T07:23:41.364Z,10.09
2017-10-22T07:24:41.424Z,10.10
2017-10-22T07:25:41.385Z,10.12
2017-10-22T07:26:41.401Z,10.07
2017-10-22T07:27:41.392Z,10.15
2017-10-22T07:28:41.398Z,10.16
2017-10-22T07:29:41.405Z,10.22
2017-10-22T07:30:41.462Z,10.13
2017-10-22T07:31:41.418Z,10.15
2017-10-22T07:32:41.427Z,10.28
2017-10-22T07:33:41.483Z,10.19
2017-10-22T07:34:41.442Z,10.30
2017-10-22T07:35:41.499Z,10.20
2017-10-22T07:36:41.469Z,10.17
2017-10-22T07:37:41.515Z,10.26
2017-10-22T07:38:41.473Z,10.19
2017-10-22T07:39:41.526Z,10.30
2017-10-22T07:40:41.489Z,10.26
2017-10-22T07:41:41.593Z,10.16
2017-10-22T07:42:41.503Z,10.26
2017-10-22T07:43:41.606Z,10.23
2017-10-22T07:44:41.521Z,10.26
2017-10-22T07:45:41.621Z,10.22
2017-10-22T07:46:41.533Z,10.19
2017-10-22T07:47:41.633Z,10.20
2017-10-22T07:48:41.549Z,10.33
2017-10-22T07:49:41.648Z,10.31
2017-10-22T07:50:41.562Z,10.31
2017-10-22T07:51:41.662Z,10.31
2017-10-22T07:52:41.609Z,10.35
2017-10-22T07:53:41.673Z,10.35
2017-10-22T07:54:41.592Z,10.35
2017-10-22T07:55:41.689Z,10.38
2017-10-22T07:56:41.614Z,10.38
2017-10-22T07:57:41.701Z,10.42
2017-10-22T07:58:41.628Z,10.38
2017-10-22T07:59:41.714Z,10.38
2017-10-22T08:00:41.641Z,10.33
2017-10-22T08:01:41.740Z,10.41
2017-10-22T08:02:41.656Z,10.40
2017-10-22T08:03:41.752Z,10.38
2017-10-22T08:04:41.673Z,10.38
2017-10-22T08:05:41.683Z,10.44
2017-10-22T08:06:41.687Z,10.42
2017-10-22T08:07:41.771Z,10.37
2017-10-22T08:08:41.700Z,10.33
2017-10-22T08:09:41.784Z,10.38
2017-10-22T08:10:41.716Z,10.34
2017-10-22T08:11:41.726Z,10.34
2017-10-22T08:12:41.731Z,10.35
2017-10-22T08:13:41.813Z,10.35
2017-10-22T08:14:41.745Z,10.40
2017-10-22T08:15:41.824Z,10.34
2017-10-22T08:16:41.762Z,10.35
2017-10-22T08:17:41.768Z,10.37
2017-10-22T08:18:41.778Z,10.46
2017-10-22T08:19:41.851Z,10.40
2017-10-22T08:20:41.813Z,10.42
2017-10-22T08:21:41.866Z,10.48
2017-10-22T08:22:41.810Z,10.59
2017-10-22T08:23:41.877Z,10.40
2017-10-22T08:24:41.822Z,10.51
2017-10-22T08:25:41.898Z,10.49
2017-10-22T08:26:41.837Z,10.44
2017-10-22T08:27:41.846Z,10.53
2017-10-22T08:28:41.913Z,10.51
2017-10-22T08:29:41.859Z,10.64
2017-10-22T08:30:41.927Z,10.51
2017-10-22T08:31:41.875Z,10.60
2017-10-22T08:32:41.941Z,10.68
2017-10-22T08:33:41.925Z,10.61
2017-10-22T08:34:41.952Z,10.72
2017-10-22T08:35:41.911Z,10.69
2017-10-22T08:36:41.968Z,10.64
2017-10-22T08:37:41.918Z,10.67
2017-10-22T08:38:41.978Z,10.69
2017-10-22T08:39:41.942Z,10.67
2017-10-22T08:40:41.948Z,10.75
2017-10-22T08:41:41.958Z,10.74
2017-10-22T08:42:41.957Z,10.78
2017-10-22T08:43:42.014Z,10.71
2017-10-22T08:44:41.977Z,10.78
2017-10-22T08:45:42.030Z,10.69
2017-10-22T08:46:42.005Z,10.74
2017-10-22T08:47:42.040Z,10.69
2017-10-22T08:48:42.004Z,10.72
2017-10-22T08:49:42.060Z,10.72
2017-10-22T08:50:42.027Z,10.69
2017-10-22T08:51:43.098Z,10.71
2017-10-22T08:52:42.041Z,10.74
2017-10-22T08:53:42.058Z,10.71
2017-10-22T08:54:42.054Z,10.67
2017-10-22T08:55:42.099Z,10.71
2017-10-22T08:56:42.065Z,10.71
2017-10-22T08:57:42.081Z,10.75
2017-10-22T08:58:43.143Z,10.78
2017-10-22T08:59:42.085Z,10.84
2017-10-22T09:00:42.093Z,10.84
2017-10-22T09:01:42.099Z,10.92
2017-10-22T09:02:42.114Z,10.90
2017-10-22T09:03:42.115Z,10.92
2017-10-22T09:04:42.126Z,10.90
2017-10-22T09:05:42.129Z,10.86
2017-10-22T09:06:42.137Z,10.84
2017-10-22T09:07:42.147Z,10.92
2017-10-22T09:08:42.154Z,11.02
2017-10-22T09:09:42.159Z,11.04
2017-10-22T09:10:42.173Z,11.07
2017-10-22T09:11:42.176Z,11.07
2017-10-22T09:12:42.195Z,11.07
2017-10-22T09:13:42.200Z,11.11
2017-10-22T09:14:42.201Z,11.22
2017-10-22T09:15:42.213Z,11.07
2017-10-22T09:16:42.213Z,11.19
2017-10-22T09:17:42.246Z,11.23
2017-10-22T09:18:42.232Z,11.23
2017-10-22T09:19:43.285Z,11.22
2017-10-22T09:20:42.244Z,11.26
2017-10-22T09:21:42.250Z,11.41
2017-10-22T09:22:42.281Z,11.43
2017-10-22T09:23:42.268Z,11.40
2017-10-22T09:24:42.291Z,11.41
2017-10-22T09:25:42.283Z,11.36
2017-10-22T09:26:42.302Z,11.33
2017-10-22T09:27:42.311Z,11.37
2017-10-22T09:28:42.305Z,11.45
2017-10-22T09:29:42.427Z,11.43
2017-10-22T09:30:42.321Z,11.44
2017-10-22T09:31:42.328Z,11.50
2017-10-22T09:32:42.449Z,11.45
2017-10-22T09:33:42.340Z,11.50
2017-10-22T09:34:42.463Z,11.48
2017-10-22T09:35:42.357Z,11.44
2017-10-22T09:36:42.478Z,11.37
2017-10-22T09:37:42.375Z,11.33
2017-10-22T09:38:42.491Z,11.33
2017-10-22T09:39:42.400Z,11.19
2017-10-22T09:40:42.506Z,11.22
2017-10-22T09:41:42.403Z,11.19
2017-10-22T09:42:42.518Z,11.19
2017-10-22T09:43:42.421Z,11.17
2017-10-22T09:44:42.530Z,11.22
2017-10-22T09:45:42.437Z,11.11
2017-10-22T09:46:42.450Z,11.10
2017-10-22T09:47:42.555Z,11.11
2017-10-22T09:48:42.459Z,11.12
2017-10-22T09:49:42.566Z,11.12
2017-10-22T09:50:42.470Z,11.05
2017-10-22T09:51:42.477Z,11.10
2017-10-22T09:52:42.483Z,11.19
2017-10-22T09:53:42.591Z,11.11
2017-10-22T09:54:42.503Z,10.94
2017-10-22T09:55:42.605Z,11.04
2017-10-22T09:56:42.515Z,10.99
2017-10-22T09:57:42.620Z,11.05
2017-10-22T09:58:42.529Z,11.00
2017-10-22T09:59:42.539Z,10.97
2017-10-22T10:00:42.547Z,11.04
2017-10-22T10:01:42.551Z,11.04
2017-10-22T10:02:42.657Z,10.99
2017-10-22T10:03:42.566Z,11.05
2017-10-22T10:04:42.667Z,11.04
2017-10-22T10:05:42.589Z,11.00
2017-10-22T10:06:42.685Z,11.00
2017-10-22T10:07:42.597Z,11.04
2017-10-22T10:08:42.609Z,10.99
2017-10-22T10:09:42.611Z,11.05
2017-10-22T10:10:42.624Z,11.00
2017-10-22T10:11:42.625Z,11.02
2017-10-22T10:12:42.710Z,10.92
2017-10-22T10:13:42.643Z,10.94
2017-10-22T10:14:42.728Z,10.97
2017-10-22T10:15:42.667Z,11.04
2017-10-22T10:16:42.738Z,11.00
2017-10-22T10:17:42.672Z,11.05
2017-10-22T10:18:42.750Z,10.96
2017-10-22T10:19:42.691Z,10.99
2017-10-22T10:20:42.765Z,10.99
2017-10-22T10:21:42.706Z,10.93
2017-10-22T10:22:42.777Z,11.00
2017-10-22T10:23:42.725Z,11.02
2017-10-22T10:24:42.730Z,11.00
2017-10-22T10:25:42.735Z,11.04
2017-10-22T10:26:42.806Z,10.96
2017-10-22T10:27:42.754Z,11.00
2017-10-22T10:28:42.755Z,11.08
2017-10-22T10:29:42.768Z,10.99
2017-10-22T10:30:42.831Z,11.00
2017-10-22T10:31:42.780Z,11.05
2017-10-22T10:32:42.844Z,10.99
2017-10-22T10:33:42.795Z,11.00
2017-10-22T10:34:42.863Z,11.14
2017-10-22T10:35:42.810Z,11.07
2017-10-22T10:36:42.873Z,11.07
2017-10-22T10:37:42.825Z,11.02
2017-10-22T10:38:42.886Z,11.11
2017-10-22T10:39:42.841Z,11.02
2017-10-22T10:40:42.854Z,11.11
2017-10-22T10:41:42.855Z,11.02
2017-10-22T10:42:42.862Z,10.97
2017-10-22T10:43:42.868Z,11.00
2017-10-22T10:44:42.875Z,10.99
2017-10-22T10:45:42.892Z,11.04
2017-10-22T10:46:42.889Z,11.00
2017-10-22T10:47:42.897Z,11.18
2017-10-22T10:48:42.908Z,11.07
2017-10-22T10:49:42.913Z,10.99
2017-10-22T10:50:42.965Z,11.08
2017-10-22T10:51:42.928Z,11.18
2017-10-22T10:52:42.980Z,11.08
2017-10-22T10:53:42.941Z,11.17
2017-10-22T10:54:42.995Z,11.17
2017-10-22T10:55:42.959Z,11.07
2017-10-22T10:56:43.012Z,11.12
2017-10-22T10:57:42.970Z,11.19
2017-10-22T10:58:43.019Z,11.22
2017-10-22T10:59:42.987Z,11.29
2017-10-22T11:00:43.033Z,11.23
2017-10-22T11:01:43.002Z,11.22
2017-10-22T11:02:43.011Z,11.29
2017-10-22T11:03:43.016Z,11.18
2017-10-22T11:04:43.027Z,11.22
2017-10-22T11:05:43.029Z,11.17
2017-10-22T11:06:43.075Z,11.26
2017-10-22T11:07:43.051Z,11.17
2017-10-22T11:08:43.086Z,11.26
2017-10-22T11:09:43.060Z,11.15
2017-10-22T11:10:43.100Z,11.22
2017-10-22T11:11:43.077Z,11.23
2017-10-22T11:12:43.088Z,11.25
2017-10-22T11:13:43.120Z,11.27
2017-10-22T11:14:43.104Z,11.29
2017-10-22T11:15:43.108Z,11.18
2017-10-22T11:16:43.115Z,11.19
2017-10-22T11:17:43.122Z,11.23
2017-10-22T11:18:43.134Z,11.23
2017-10-22T11:19:43.141Z,11.23
2017-10-22T11:20:43.170Z,11.22
2017-10-22T11:21:43.151Z,11.25
2017-10-22T11:22:43.183Z,11.26
2017-10-22T11:23:43.164Z,11.19
2017-10-22T11:24:43.198Z,11.25
2017-10-22T11:25:43.178Z,11.23
2017-10-22T11:26:43.188Z,11.22
2017-10-22T11:27:43.195Z,11.27
2017-10-22T11:28:43.205Z,11.25
2017-10-22T11:29:43.215Z,11.18
2017-10-22T11:30:43.223Z,11.22
2017-10-22T11:31:43.230Z,11.29
2017-10-22T11:32:43.248Z,11.25
2017-10-22T11:33:43.257Z,11.22
2017-10-22T11:34:43.247Z,11.19
2017-10-22T11:35:43.270Z,11.18
2017-10-22T11:36:43.259Z,11.18
2017-10-22T11:37:43.268Z,11.15
2017-10-22T11:38:43.277Z,11.25
2017-10-22T11:39:43.284Z,11.18
2017-10-22T11:40:43.293Z,11.25
2017-10-22T11:41:43.301Z,11.22
2017-10-22T11:42:43.328Z,11.19
2017-10-22T11:43:43.317Z,11.23
2017-10-22T11:44:43.320Z,11.18
2017-10-22T11:45:43.328Z,11.17
2017-10-22T11:46:43.337Z,11.23
2017-10-22T11:47:43.455Z,11.27
2017-10-22T11:48:43.353Z,11.25
2017-10-22T11:49:43.471Z,11.26
2017-10-22T11:50:43.369Z,11.27
2017-10-22T11:51:43.379Z,11.23
2017-10-22T11:52:43.381Z,11.19
2017-10-22T11:53:43.394Z,11.26
2017-10-22T11:54:43.395Z,11.23
2017-10-22T11:55:43.405Z,11.23
2017-10-22T11:56:43.410Z,11.25
2017-10-22T11:57:43.419Z,11.22
2017-10-22T11:58:43.426Z,11.30
2017-10-22T11:59:43.436Z,11.36
2017-10-22T12:00:43.446Z,11.37
2017-10-22T12:01:43.551Z,11.30
2017-10-22T12:02:43.456Z,11.44
2017-10-22T12:03:43.564Z,11.40
2017-10-22T12:04:43.470Z,11.36
2017-10-22T12:05:43.488Z,11.48
2017-10-22T12:06:43.584Z,11.40
2017-10-22T12:07:43.498Z,11.43
2017-10-22T12:08:43.503Z,11.52
2017-10-22T12:09:43.511Z,11.50
2017-10-22T12:10:43.520Z,11.55
2017-10-22T12:11:43.524Z,11.43
2017-10-22T12:12:43.529Z,11.48
2017-10-22T12:13:43.536Z,11.68
2017-10-22T12:14:43.545Z,11.62
2017-10-22T12:15:43.654Z,11.68
2017-10-22T12:16:43.563Z,11.68
2017-10-22T12:17:43.568Z,11.75
2017-10-22T12:18:43.574Z,11.80
2017-10-22T12:19:43.585Z,11.80
2017-10-22T12:20:43.595Z,11.83
2017-10-22T12:21:43.697Z,11.95
2017-10-22T12:23:01.959Z,11.97
2017-10-22T12:24:02.038Z,11.97
2017-10-22T12:25:56.389Z,12.07
2017-10-22T12:26:55.505Z,12.20
2017-10-22T12:27:55.612Z,12.25
2017-10-22T12:28:56.398Z,12.31
2017-10-22T12:29:55.629Z,12.35
2017-10-22T12:30:55.536Z,12.43
2017-10-22T12:31:55.637Z,12.42
2017-10-22T12:32:55.558Z,12.43
2017-10-22T12:33:55.659Z,12.37
2017-10-22T12:34:55.568Z,12.40
2017-10-22T12:35:55.669Z,12.39
2017-10-22T12:36:55.579Z,12.46
2017-10-22T12:37:55.687Z,12.47
2017-10-22T12:38:55.598Z,12.43
2017-10-22T12:39:55.603Z,12.31
2017-10-22T12:40:55.705Z,12.36
2017-10-22T12:41:55.620Z,12.25
2017-10-22T12:42:55.725Z,12.22
2017-10-22T12:43:55.636Z,12.22
2017-10-22T12:44:55.732Z,12.15
2017-10-22T12:45:55.656Z,12.21
2017-10-22T12:46:55.737Z,12.21
2017-10-22T12:47:55.662Z,12.22
2017-10-22T12:48:55.758Z,12.28
2017-10-22T12:49:55.684Z,12.29
2017-10-22T12:50:55.773Z,12.32
2017-10-22T12:51:55.698Z,12.32
2017-10-22T12:52:55.783Z,12.31
2017-10-22T12:53:55.723Z,12.46
2017-10-22T12:54:55.715Z,12.37
2017-10-22T12:55:55.726Z,12.50
2017-10-22T12:56:55.732Z,12.42
2017-10-22T12:57:55.820Z,12.43
2017-10-22T12:58:55.746Z,12.42
2017-10-22T12:59:55.760Z,12.47